sensor_id;sensor_type;location;lat;lon;timestamp;P1;durP1;ratioP1;P2;durP2;ratioP2
22606;SDS011;11470;20.968;105.834;2022-10-26T00:01:43;118.83;;;78.37;;
22606;SDS011;11470;20.968;105.834;2022-10-26T00:06:49;129.23;;;88.82;;
22606;SDS011;11470;20.968;105.834;2022-10-26T00:11:54;127.75;;;87.13;;
22606;SDS011;11470;20.968;105.834;2022-10-26T00:17:00;126.83;;;84.43;;
22606;SDS011;11470;20.968;105.834;2022-10-26T00:22:05;130.52;;;87.35;;
22606;SDS011;11470;20.968;105.834;2022-10-26T00:27:11;115.28;;;74.28;;
22606;SDS011;11470;20.968;105.834;2022-10-26T00:32:17;129.93;;;90.37;;
22606;SDS011;11470;20.968;105.834;2022-10-26T00:37:22;110.78;;;79.25;;
22606;SDS011;11470;20.968;105.834;2022-10-26T00:42:28;117.57;;;76.45;;
22606;SDS011;11470;20.968;105.834;2022-10-26T00:52:39;120.47;;;79.32;;
22606;SDS011;11470;20.968;105.834;2022-10-26T00:57:45;131.27;;;87.93;;
22606;SDS011;11470;20.968;105.834;2022-10-26T01:02:51;127.90;;;87.57;;
22606;SDS011;11470;20.968;105.834;2022-10-26T01:07:56;107.88;;;74.00;;
22606;SDS011;11470;20.968;105.834;2022-10-26T01:13:06;118.32;;;78.55;;
22606;SDS011;11470;20.968;105.834;2022-10-26T01:23:39;111.93;;;76.93;;
22606;SDS011;11470;20.968;105.834;2022-10-26T01:34:16;116.97;;;79.03;;
22606;SDS011;11470;20.968;105.834;2022-10-26T01:39:38;123.65;;;77.75;;
22606;SDS011;11470;20.968;105.834;2022-10-26T01:44:47;132.00;;;89.47;;
22606;SDS011;11470;20.968;105.834;2022-10-26T01:49:55;114.10;;;73.13;;
22606;SDS011;11470;20.968;105.834;2022-10-26T01:55:02;134.10;;;84.85;;
22606;SDS011;11470;20.968;105.834;2022-10-26T02:00:09;119.18;;;80.15;;
22606;SDS011;11470;20.968;105.834;2022-10-26T02:05:20;133.13;;;83.72;;
22606;SDS011;11470;20.968;105.834;2022-10-26T02:10:30;135.65;;;88.78;;
22606;SDS011;11470;20.968;105.834;2022-10-26T02:15:39;135.00;;;86.38;;
22606;SDS011;11470;20.968;105.834;2022-10-26T02:20:49;137.55;;;83.95;;
22606;SDS011;11470;20.968;105.834;2022-10-26T02:25:56;117.45;;;74.60;;
22606;SDS011;11470;20.968;105.834;2022-10-26T02:31:04;123.97;;;82.35;;
22606;SDS011;11470;20.968;105.834;2022-10-26T02:36:10;145.43;;;96.78;;
22606;SDS011;11470;20.968;105.834;2022-10-26T02:41:18;122.95;;;79.20;;
22606;SDS011;11470;20.968;105.834;2022-10-26T02:46:24;127.70;;;81.60;;
22606;SDS011;11470;20.968;105.834;2022-10-26T02:51:37;130.27;;;85.30;;
22606;SDS011;11470;20.968;105.834;2022-10-26T03:01:52;124.63;;;78.30;;
22606;SDS011;11470;20.968;105.834;2022-10-26T03:06:58;126.28;;;80.60;;
22606;SDS011;11470;20.968;105.834;2022-10-26T03:12:04;143.02;;;92.90;;
22606;SDS011;11470;20.968;105.834;2022-10-26T03:17:10;123.65;;;76.95;;
22606;SDS011;11470;20.968;105.834;2022-10-26T03:22:16;132.23;;;89.20;;
22606;SDS011;11470;20.968;105.834;2022-10-26T03:27:21;122.45;;;78.13;;
22606;SDS011;11470;20.968;105.834;2022-10-26T03:32:27;122.57;;;78.67;;
22606;SDS011;11470;20.968;105.834;2022-10-26T03:37:32;117.65;;;68.28;;
22606;SDS011;11470;20.968;105.834;2022-10-26T03:42:38;131.17;;;87.53;;
22606;SDS011;11470;20.968;105.834;2022-10-26T03:47:44;118.28;;;78.78;;
22606;SDS011;11470;20.968;105.834;2022-10-26T03:52:50;122.53;;;77.93;;
22606;SDS011;11470;20.968;105.834;2022-10-26T03:57:55;115.25;;;75.45;;
22606;SDS011;11470;20.968;105.834;2022-10-26T04:03:01;123.97;;;73.72;;
22606;SDS011;11470;20.968;105.834;2022-10-26T04:08:06;126.13;;;82.45;;
22606;SDS011;11470;20.968;105.834;2022-10-26T04:13:13;108.97;;;67.00;;
22606;SDS011;11470;20.968;105.834;2022-10-26T04:18:18;131.35;;;85.68;;
22606;SDS011;11470;20.968;105.834;2022-10-26T04:28:29;109.72;;;66.45;;
22606;SDS011;11470;20.968;105.834;2022-10-26T04:33:36;118.90;;;72.13;;
22606;SDS011;11470;20.968;105.834;2022-10-26T04:38:42;103.53;;;59.63;;
22606;SDS011;11470;20.968;105.834;2022-10-26T04:43:47;114.10;;;77.25;;
22606;SDS011;11470;20.968;105.834;2022-10-26T04:48:53;124.32;;;82.30;;
22606;SDS011;11470;20.968;105.834;2022-10-26T04:53:58;112.18;;;72.68;;
22606;SDS011;11470;20.968;105.834;2022-10-26T04:59:04;122.30;;;80.28;;
22606;SDS011;11470;20.968;105.834;2022-10-26T05:04:10;117.33;;;75.63;;
22606;SDS011;11470;20.968;105.834;2022-10-26T05:09:16;114.35;;;74.40;;
22606;SDS011;11470;20.968;105.834;2022-10-26T05:14:21;126.13;;;86.57;;
22606;SDS011;11470;20.968;105.834;2022-10-26T05:19:27;124.87;;;84.17;;
22606;SDS011;11470;20.968;105.834;2022-10-26T05:24:35;111.78;;;76.03;;
22606;SDS011;11470;20.968;105.834;2022-10-26T05:29:41;130.25;;;89.93;;
22606;SDS011;11470;20.968;105.834;2022-10-26T05:34:46;136.50;;;92.43;;
22606;SDS011;11470;20.968;105.834;2022-10-26T05:39:53;132.93;;;87.55;;
22606;SDS011;11470;20.968;105.834;2022-10-26T05:44:59;128.68;;;88.65;;
22606;SDS011;11470;20.968;105.834;2022-10-26T05:50:05;142.40;;;97.13;;
22606;SDS011;11470;20.968;105.834;2022-10-26T05:55:11;158.32;;;98.00;;
22606;SDS011;11470;20.968;105.834;2022-10-26T06:00:21;112.50;;;73.93;;
22606;SDS011;11470;20.968;105.834;2022-10-26T06:05:28;121.30;;;81.75;;
22606;SDS011;11470;20.968;105.834;2022-10-26T06:10:36;130.75;;;90.25;;
22606;SDS011;11470;20.968;105.834;2022-10-26T06:20:49;110.65;;;75.05;;
22606;SDS011;11470;20.968;105.834;2022-10-26T06:31:02;110.32;;;70.88;;
22606;SDS011;11470;20.968;105.834;2022-10-26T06:36:14;97.35;;;58.72;;
22606;SDS011;11470;20.968;105.834;2022-10-26T06:41:22;120.97;;;77.53;;
22606;SDS011;11470;20.968;105.834;2022-10-26T06:46:29;105.53;;;65.45;;
22606;SDS011;11470;20.968;105.834;2022-10-26T06:51:40;115.25;;;77.68;;
22606;SDS011;11470;20.968;105.834;2022-10-26T06:56:47;130.27;;;85.82;;
22606;SDS011;11470;20.968;105.834;2022-10-26T07:01:53;104.03;;;71.88;;
22606;SDS011;11470;20.968;105.834;2022-10-26T07:07:01;117.57;;;77.45;;
22606;SDS011;11470;20.968;105.834;2022-10-26T07:12:07;119.63;;;79.65;;
22606;SDS011;11470;20.968;105.834;2022-10-26T07:17:12;123.53;;;82.07;;
22606;SDS011;11470;20.968;105.834;2022-10-26T07:22:20;118.00;;;77.18;;
22606;SDS011;11470;20.968;105.834;2022-10-26T07:27:25;127.10;;;80.97;;
22606;SDS011;11470;20.968;105.834;2022-10-26T07:32:31;122.85;;;82.65;;
22606;SDS011;11470;20.968;105.834;2022-10-26T07:37:39;131.45;;;84.15;;
22606;SDS011;11470;20.968;105.834;2022-10-26T07:42:44;134.07;;;87.93;;
22606;SDS011;11470;20.968;105.834;2022-10-26T07:52:58;139.77;;;90.43;;
22606;SDS011;11470;20.968;105.834;2022-10-26T07:58:03;127.25;;;86.57;;
22606;SDS011;11470;20.968;105.834;2022-10-26T08:03:09;139.05;;;86.40;;
22606;SDS011;11470;20.968;105.834;2022-10-26T08:08:15;135.13;;;89.77;;
22606;SDS011;11470;20.968;105.834;2022-10-26T08:18:26;153.52;;;92.03;;
22606;SDS011;11470;20.968;105.834;2022-10-26T08:23:31;136.73;;;85.53;;
22606;SDS011;11470;20.968;105.834;2022-10-26T08:28:37;102.32;;;70.82;;
22606;SDS011;11470;20.968;105.834;2022-10-26T08:33:46;95.28;;;64.57;;
22606;SDS011;11470;20.968;105.834;2022-10-26T08:38:52;112.35;;;77.25;;
22606;SDS011;11470;20.968;105.834;2022-10-26T08:43:58;110.00;;;59.67;;
22606;SDS011;11470;20.968;105.834;2022-10-26T08:49:51;101.97;;;65.20;;
22606;SDS011;11470;20.968;105.834;2022-10-26T08:54:39;112.30;;;73.65;;
22606;SDS011;11470;20.968;105.834;2022-10-26T08:59:52;108.53;;;69.32;;
22606;SDS011;11470;20.968;105.834;2022-10-26T09:05:00;126.85;;;78.97;;
22606;SDS011;11470;20.968;105.834;2022-10-26T09:26:10;118.18;;;75.78;;
22606;SDS011;11470;20.968;105.834;2022-10-26T09:31:18;110.72;;;74.53;;
22606;SDS011;11470;20.968;105.834;2022-10-26T09:36:23;108.00;;;72.05;;
22606;SDS011;11470;20.968;105.834;2022-10-26T09:41:30;113.53;;;74.03;;
22606;SDS011;11470;20.968;105.834;2022-10-26T09:46:45;110.00;;;72.90;;
22606;SDS011;11470;20.968;105.834;2022-10-26T09:51:54;114.63;;;75.82;;
22606;SDS011;11470;20.968;105.834;2022-10-26T10:02:48;126.55;;;79.57;;
22606;SDS011;11470;20.968;105.834;2022-10-26T10:07:33;132.05;;;83.13;;
22606;SDS011;11470;20.968;105.834;2022-10-26T10:12:41;121.68;;;76.85;;
22606;SDS011;11470;20.968;105.834;2022-10-26T10:17:47;124.25;;;81.93;;
22606;SDS011;11470;20.968;105.834;2022-10-26T10:22:55;133.23;;;85.82;;
22606;SDS011;11470;20.968;105.834;2022-10-26T10:28:01;129.10;;;84.40;;
22606;SDS011;11470;20.968;105.834;2022-10-26T10:33:11;148.18;;;96.00;;
22606;SDS011;11470;20.968;105.834;2022-10-26T10:38:20;139.52;;;88.10;;
22606;SDS011;11470;20.968;105.834;2022-10-26T10:43:25;121.30;;;79.97;;
22606;SDS011;11470;20.968;105.834;2022-10-26T10:48:31;135.43;;;87.67;;
22606;SDS011;11470;20.968;105.834;2022-10-26T11:09:18;151.25;;;94.97;;
22606;SDS011;11470;20.968;105.834;2022-10-26T11:20:11;136.40;;;88.07;;
22606;SDS011;11470;20.968;105.834;2022-10-26T11:25:23;144.48;;;91.80;;
22606;SDS011;11470;20.968;105.834;2022-10-26T11:30:32;146.40;;;92.45;;
22606;SDS011;11470;20.968;105.834;2022-10-26T11:41:02;160.52;;;105.18;;
22606;SDS011;11470;20.968;105.834;2022-10-26T11:51:32;110.55;;;70.28;;
22606;SDS011;11470;20.968;105.834;2022-10-26T11:56:49;104.50;;;59.13;;
22606;SDS011;11470;20.968;105.834;2022-10-26T12:02:17;121.07;;;70.28;;
22606;SDS011;11470;20.968;105.834;2022-10-26T12:07:34;117.45;;;71.78;;
22606;SDS011;11470;20.968;105.834;2022-10-26T12:12:49;110.97;;;69.50;;
22606;SDS011;11470;20.968;105.834;2022-10-26T12:18:00;110.15;;;64.13;;
22606;SDS011;11470;20.968;105.834;2022-10-26T12:23:08;106.75;;;51.97;;
22606;SDS011;11470;20.968;105.834;2022-10-26T12:33:49;95.35;;;53.33;;
22606;SDS011;11470;20.968;105.834;2022-10-26T12:38:55;96.68;;;60.42;;
22606;SDS011;11470;20.968;105.834;2022-10-26T12:44:02;83.90;;;52.17;;
22606;SDS011;11470;20.968;105.834;2022-10-26T12:55:02;76.00;;;49.40;;
22606;SDS011;11470;20.968;105.834;2022-10-26T13:00:12;79.43;;;43.55;;
22606;SDS011;11470;20.968;105.834;2022-10-26T13:10:24;77.60;;;45.45;;
22606;SDS011;11470;20.968;105.834;2022-10-26T13:15:32;74.13;;;42.85;;
22606;SDS011;11470;20.968;105.834;2022-10-26T13:26:12;68.45;;;41.20;;
22606;SDS011;11470;20.968;105.834;2022-10-26T13:37:30;62.50;;;36.25;;
22606;SDS011;11470;20.968;105.834;2022-10-26T13:42:40;66.50;;;37.75;;
22606;SDS011;11470;20.968;105.834;2022-10-26T13:47:59;62.90;;;35.78;;
22606;SDS011;11470;20.968;105.834;2022-10-26T13:53:12;66.97;;;37.92;;
22606;SDS011;11470;20.968;105.834;2022-10-26T13:58:33;61.58;;;34.78;;
22606;SDS011;11470;20.968;105.834;2022-10-26T14:03:42;67.35;;;38.72;;
22606;SDS011;11470;20.968;105.834;2022-10-26T14:08:49;71.80;;;40.67;;
22606;SDS011;11470;20.968;105.834;2022-10-26T14:13:56;62.90;;;36.15;;
22606;SDS011;11470;20.968;105.834;2022-10-26T14:19:11;64.53;;;38.17;;
22606;SDS011;11470;20.968;105.834;2022-10-26T14:24:27;77.85;;;43.45;;
22606;SDS011;11470;20.968;105.834;2022-10-26T14:29:49;93.30;;;48.78;;
22606;SDS011;11470;20.968;105.834;2022-10-26T14:35:16;80.20;;;46.40;;
22606;SDS011;11470;20.968;105.834;2022-10-26T14:40:35;84.70;;;48.45;;
22606;SDS011;11470;20.968;105.834;2022-10-26T14:45:40;80.68;;;47.55;;
22606;SDS011;11470;20.968;105.834;2022-10-26T14:56:16;76.10;;;47.10;;
22606;SDS011;11470;20.968;105.834;2022-10-26T15:01:23;76.95;;;43.08;;
22606;SDS011;11470;20.968;105.834;2022-10-26T15:06:42;69.77;;;38.40;;
22606;SDS011;11470;20.968;105.834;2022-10-26T15:11:55;68.40;;;43.65;;
22606;SDS011;11470;20.968;105.834;2022-10-26T15:17:00;81.90;;;47.67;;
22606;SDS011;11470;20.968;105.834;2022-10-26T15:22:14;66.63;;;41.03;;
22606;SDS011;11470;20.968;105.834;2022-10-26T15:27:24;81.63;;;48.97;;
22606;SDS011;11470;20.968;105.834;2022-10-26T15:32:31;80.05;;;44.92;;
22606;SDS011;11470;20.968;105.834;2022-10-26T15:37:40;74.15;;;44.90;;
22606;SDS011;11470;20.968;105.834;2022-10-26T15:47:51;76.07;;;46.97;;
22606;SDS011;11470;20.968;105.834;2022-10-26T15:53:00;89.13;;;54.17;;
22606;SDS011;11470;20.968;105.834;2022-10-26T15:58:08;87.50;;;51.42;;
22606;SDS011;11470;20.968;105.834;2022-10-26T16:03:16;78.97;;;49.63;;
22606;SDS011;11470;20.968;105.834;2022-10-26T16:08:38;73.65;;;46.40;;
22606;SDS011;11470;20.968;105.834;2022-10-26T16:14:06;81.43;;;46.33;;
22606;SDS011;11470;20.968;105.834;2022-10-26T16:19:12;82.32;;;50.03;;
22606;SDS011;11470;20.968;105.834;2022-10-26T16:24:32;78.90;;;49.35;;
22606;SDS011;11470;20.968;105.834;2022-10-26T16:29:38;77.80;;;48.35;;
22606;SDS011;11470;20.968;105.834;2022-10-26T16:34:44;76.38;;;47.10;;
22606;SDS011;11470;20.968;105.834;2022-10-26T16:39:49;75.47;;;45.22;;
22606;SDS011;11470;20.968;105.834;2022-10-26T16:44:55;78.57;;;46.70;;
22606;SDS011;11470;20.968;105.834;2022-10-26T16:50:08;78.78;;;46.10;;
22606;SDS011;11470;20.968;105.834;2022-10-26T16:55:13;74.22;;;43.63;;
22606;SDS011;11470;20.968;105.834;2022-10-26T17:00:22;64.95;;;42.95;;
22606;SDS011;11470;20.968;105.834;2022-10-26T17:05:27;69.53;;;43.40;;
22606;SDS011;11470;20.968;105.834;2022-10-26T17:10:35;65.80;;;43.08;;
22606;SDS011;11470;20.968;105.834;2022-10-26T17:15:41;71.65;;;42.80;;
22606;SDS011;11470;20.968;105.834;2022-10-26T17:20:49;67.00;;;40.58;;
22606;SDS011;11470;20.968;105.834;2022-10-26T17:26:08;70.63;;;41.10;;
22606;SDS011;11470;20.968;105.834;2022-10-26T17:31:14;60.67;;;38.00;;
22606;SDS011;11470;20.968;105.834;2022-10-26T17:36:20;70.03;;;38.83;;
22606;SDS011;11470;20.968;105.834;2022-10-26T17:41:26;61.90;;;37.45;;
22606;SDS011;11470;20.968;105.834;2022-10-26T17:46:32;71.15;;;39.25;;
22606;SDS011;11470;20.968;105.834;2022-10-26T17:56:42;71.13;;;38.80;;
22606;SDS011;11470;20.968;105.834;2022-10-26T18:01:49;62.88;;;36.05;;
22606;SDS011;11470;20.968;105.834;2022-10-26T18:07:04;64.60;;;35.42;;
22606;SDS011;11470;20.968;105.834;2022-10-26T18:12:09;61.97;;;34.85;;
22606;SDS011;11470;20.968;105.834;2022-10-26T18:17:14;60.23;;;33.77;;
22606;SDS011;11470;20.968;105.834;2022-10-26T18:22:19;57.08;;;33.05;;
22606;SDS011;11470;20.968;105.834;2022-10-26T18:27:25;73.30;;;34.35;;
22606;SDS011;11470;20.968;105.834;2022-10-26T18:37:36;54.95;;;29.67;;
22606;SDS011;11470;20.968;105.834;2022-10-26T18:42:41;45.53;;;27.15;;
22606;SDS011;11470;20.968;105.834;2022-10-26T18:47:47;64.20;;;32.88;;
22606;SDS011;11470;20.968;105.834;2022-10-26T18:52:53;51.08;;;30.60;;
22606;SDS011;11470;20.968;105.834;2022-10-26T18:57:58;57.70;;;30.88;;
22606;SDS011;11470;20.968;105.834;2022-10-26T19:08:09;50.20;;;29.55;;
22606;SDS011;11470;20.968;105.834;2022-10-26T19:13:14;53.10;;;28.37;;
22606;SDS011;11470;20.968;105.834;2022-10-26T19:18:19;58.03;;;29.75;;
22606;SDS011;11470;20.968;105.834;2022-10-26T19:23:30;58.07;;;31.03;;
22606;SDS011;11470;20.968;105.834;2022-10-26T19:28:36;58.03;;;30.50;;
22606;SDS011;11470;20.968;105.834;2022-10-26T19:33:41;44.70;;;26.70;;
22606;SDS011;11470;20.968;105.834;2022-10-26T19:38:47;49.80;;;27.10;;
22606;SDS011;11470;20.968;105.834;2022-10-26T19:43:55;43.23;;;24.50;;
22606;SDS011;11470;20.968;105.834;2022-10-26T19:49:06;45.05;;;24.75;;
22606;SDS011;11470;20.968;105.834;2022-10-26T19:54:11;46.10;;;25.37;;
22606;SDS011;11470;20.968;105.834;2022-10-26T19:59:17;48.92;;;24.95;;
22606;SDS011;11470;20.968;105.834;2022-10-26T20:04:22;52.47;;;25.30;;
22606;SDS011;11470;20.968;105.834;2022-10-26T20:09:27;50.10;;;25.07;;
22606;SDS011;11470;20.968;105.834;2022-10-26T20:14:35;50.13;;;25.42;;
22606;SDS011;11470;20.968;105.834;2022-10-26T20:19:43;42.60;;;24.20;;
22606;SDS011;11470;20.968;105.834;2022-10-26T20:24:48;50.78;;;24.73;;
22606;SDS011;11470;20.968;105.834;2022-10-26T20:29:54;49.38;;;25.50;;
22606;SDS011;11470;20.968;105.834;2022-10-26T20:34:59;45.80;;;25.27;;
22606;SDS011;11470;20.968;105.834;2022-10-26T20:40:05;40.80;;;23.67;;
22606;SDS011;11470;20.968;105.834;2022-10-26T20:50:34;45.60;;;22.40;;
22606;SDS011;11470;20.968;105.834;2022-10-26T21:05:50;38.17;;;20.98;;
22606;SDS011;11470;20.968;105.834;2022-10-26T21:10:55;43.47;;;21.33;;
22606;SDS011;11470;20.968;105.834;2022-10-26T21:16:05;41.53;;;17.55;;
22606;SDS011;11470;20.968;105.834;2022-10-26T21:21:10;35.75;;;18.58;;
22606;SDS011;11470;20.968;105.834;2022-10-26T21:26:16;43.65;;;18.27;;
22606;SDS011;11470;20.968;105.834;2022-10-26T21:31:21;36.53;;;18.13;;
22606;SDS011;11470;20.968;105.834;2022-10-26T21:36:26;34.13;;;17.07;;
22606;SDS011;11470;20.968;105.834;2022-10-26T21:41:34;33.03;;;17.65;;
22606;SDS011;11470;20.968;105.834;2022-10-26T21:46:40;34.38;;;16.30;;
22606;SDS011;11470;20.968;105.834;2022-10-26T21:51:45;29.63;;;15.45;;
22606;SDS011;11470;20.968;105.834;2022-10-26T21:56:51;34.97;;;16.52;;
22606;SDS011;11470;20.968;105.834;2022-10-26T22:01:56;30.83;;;14.90;;
22606;SDS011;11470;20.968;105.834;2022-10-26T22:07:02;35.00;;;15.17;;
22606;SDS011;11470;20.968;105.834;2022-10-26T22:12:07;32.57;;;15.13;;
22606;SDS011;11470;20.968;105.834;2022-10-26T22:17:13;34.17;;;16.02;;
22606;SDS011;11470;20.968;105.834;2022-10-26T22:22:18;32.85;;;16.83;;
22606;SDS011;11470;20.968;105.834;2022-10-26T22:27:24;32.23;;;16.17;;
22606;SDS011;11470;20.968;105.834;2022-10-26T22:37:34;30.08;;;15.13;;
22606;SDS011;11470;20.968;105.834;2022-10-26T22:42:40;31.48;;;16.50;;
22606;SDS011;11470;20.968;105.834;2022-10-26T22:52:51;39.00;;;19.90;;
22606;SDS011;11470;20.968;105.834;2022-10-26T22:57:56;37.15;;;16.63;;
22606;SDS011;11470;20.968;105.834;2022-10-26T23:03:03;44.45;;;22.52;;
22606;SDS011;11470;20.968;105.834;2022-10-26T23:08:08;33.63;;;17.88;;
22606;SDS011;11470;20.968;105.834;2022-10-26T23:13:14;39.67;;;21.03;;
22606;SDS011;11470;20.968;105.834;2022-10-26T23:18:19;48.03;;;22.35;;
22606;SDS011;11470;20.968;105.834;2022-10-26T23:23:25;59.45;;;25.23;;
22606;SDS011;11470;20.968;105.834;2022-10-26T23:28:31;49.87;;;23.33;;
22606;SDS011;11470;20.968;105.834;2022-10-26T23:33:37;55.97;;;25.67;;
22606;SDS011;11470;20.968;105.834;2022-10-26T23:38:42;49.55;;;24.13;;
22606;SDS011;11470;20.968;105.834;2022-10-26T23:43:48;49.10;;;24.35;;
22606;SDS011;11470;20.968;105.834;2022-10-26T23:48:53;47.77;;;23.33;;
22606;SDS011;11470;20.968;105.834;2022-10-26T23:54:07;53.78;;;24.75;;
22606;SDS011;11470;20.968;105.834;2022-10-26T23:59:13;63.83;;;26.77;;
